Time;durP1;ratioP1;P1;durP2;ratioP2;P2;SDS_P1;SDS_P2;PMS_P1;PMS_P2;Temp;Humidity;BMP_temperature;BMP_pressure;BME280_temperature;BME280_humidity;BME280_pressure;Samples;Min_cycle;Max_cycle;Signal;HPM_P1;HPM_P2
2023/03/28 00:00:21;;;;;;;1999.90;999.90;;;;;;;2.71;53.19;97954.78;5049643;28;20028;-76
2023/03/28 00:02:46;;;;;;;1999.90;999.90;;;;;;;2.59;53.49;97967.53;5052023;28;20113;-76
2023/03/28 00:05:12;;;;;;;1999.90;999.90;;;;;;;2.55;53.79;97969.06;5053044;28;20501;-76
2023/03/28 00:07:38;;;;;;;1999.90;999.90;;;;;;;2.46;54.41;97968.66;5035200;28;20359;-76
2023/03/28 00:10:05;;;;;;;1999.90;999.90;;;;;;;2.27;55.63;97964.53;5053099;28;20032;-76
2023/03/28 00:12:31;;;;;;;1999.90;999.90;;;;;;;2.20;56.44;97971.94;5053142;28;20033;-77
2023/03/28 00:14:56;;;;;;;1999.90;999.90;;;;;;;2.09;56.92;97979.06;5052994;28;20031;-77
2023/03/28 00:17:23;;;;;;;1999.90;999.90;;;;;;;2.05;56.90;97988.69;5034782;28;20056;-75
2023/03/28 00:19:49;;;;;;;1999.90;999.90;;;;;;;1.96;57.86;97990.13;5053353;28;20028;-76
2023/03/28 00:22:15;;;;;;;1999.90;999.90;;;;;;;1.88;59.15;97971.59;5053259;28;20029;-77
2023/03/28 00:24:40;;;;;;;1999.90;999.90;;;;;;;1.86;60.12;97986.38;5035125;28;20078;-75
2023/03/28 00:27:06;;;;;;;1999.90;999.90;;;;;;;1.82;61.29;97987.91;5053130;28;20032;-77
2023/03/28 00:29:33;;;;;;;1999.90;999.90;;;;;;;1.59;61.68;97972.63;5035188;28;20021;-77
2023/03/28 00:31:59;;;;;;;1999.90;999.90;;;;;;;1.60;63.38;97980.47;5018457;28;20025;-76
2023/03/28 00:34:25;;;;;;;1999.90;999.90;;;;;;;1.59;64.56;97999.59;5031218;28;20057;-75
2023/03/28 00:36:52;;;;;;;1999.90;999.90;;;;;;;1.68;64.25;97981.97;5032635;28;20108;-76
2023/03/28 00:39:18;;;;;;;1999.90;999.90;;;;;;;1.76;63.61;97984.31;5032666;28;20497;-76
2023/03/28 00:41:44;;;;;;;1999.90;999.90;;;;;;;1.88;63.26;97993.16;5032560;28;20176;-76
2023/03/28 00:44:47;;;;;;;1999.90;999.90;;;;;;;1.68;64.23;97987.38;5032695;28;20025;-75
2023/03/28 00:47:37;;;;;;;1999.90;999.90;;;;;;;1.46;66.06;97989.06;5014818;28;20061;-75
2023/03/28 00:50:02;;;;;;;1999.90;999.90;;;;;;;1.26;67.50;97993.97;5015135;28;20529;-76
2023/03/28 00:52:37;;;;;;;1999.90;999.90;;;;;;;1.32;67.64;97982.25;5032417;28;20030;-76
2023/03/28 00:55:04;;;;;;;1999.90;999.90;;;;;;;1.50;67.96;97998.31;5032407;28;20403;-75
2023/03/28 00:57:29;;;;;;;1999.90;999.90;;;;;;;1.51;68.10;98002.63;5031133;28;20038;-77
2023/03/28 00:59:55;;;;;;;1999.90;999.90;;;;;;;1.44;67.32;98000.06;5032459;28;20387;-76
2023/03/28 01:02:20;;;;;;;1999.90;999.90;;;;;;;1.51;66.97;98010.72;5031152;28;20036;-75
2023/03/28 01:04:56;;;;;;;1999.90;999.90;;;;;;;1.33;67.56;98010.84;5032431;28;20020;-76
2023/03/28 01:07:23;;;;;;;1999.90;999.90;;;;;;;1.22;67.48;98011.69;5032177;28;20021;-76
2023/03/28 01:09:50;;;;;;;1999.90;999.90;;;;;;;1.13;66.88;98010.41;5032084;28;20025;-75
2023/03/28 01:12:18;;;;;;;1999.90;999.90;;;;;;;1.23;66.97;98007.91;5014264;28;20026;-76
2023/03/28 01:14:44;;;;;;;1999.90;999.90;;;;;;;1.23;68.31;98010.59;5031645;28;20048;-77
2023/03/28 01:17:09;;;;;;;1999.90;999.90;;;;;;;1.14;68.13;98001.25;5032259;28;20104;-77
2023/03/28 01:20:06;;;;;;;1999.90;999.90;;;;;;;1.24;68.89;98012.25;5031821;28;20450;-76
2023/03/28 01:22:49;;;;;;;1999.90;999.90;;;;;;;1.32;70.10;98015.41;5046630;28;20051;-75
2023/03/28 01:25:57;;;;;;;1999.90;999.90;;;;;;;1.24;69.18;98017.66;5067198;28;20021;-74
2023/03/28 01:28:53;;;;;;;1999.90;999.90;;;;;;;1.13;66.29;98016.56;5052829;28;20560;-75
2023/03/28 01:31:33;;;;;;;1999.90;999.90;;;;;;;1.11;66.88;98013.31;5053907;28;20021;-75
2023/03/28 01:34:17;;;;;;;1999.90;999.90;;;;;;;1.05;67.40;98023.16;5053581;28;20107;-75
2023/03/28 01:37:02;;;;;;;1999.90;999.90;;;;;;;1.13;68.39;98026.56;5034007;28;20032;-75
2023/03/28 01:39:42;;;;;;;1999.90;999.90;;;;;;;1.14;70.03;98020.09;5052055;28;20036;-75
2023/03/28 01:42:35;;;;;;;1999.90;999.90;;;;;;;1.05;71.00;98020.47;5033696;28;20029;-75
2023/03/28 01:45:44;;;;;;;1999.90;999.90;;;;;;;0.90;74.54;98014.72;5051501;28;20040;-76
2023/03/28 01:48:33;;;;;;;1999.90;999.90;;;;;;;0.91;77.01;98016.31;5018213;28;20080;-75
2023/03/28 01:51:13;;;;;;;1999.90;999.90;;;;;;;0.87;78.09;98031.31;5041284;28;20498;-75
2023/03/28 01:53:52;;;;;;;1999.90;999.90;;;;;;;0.63;78.90;98026.91;5052493;28;20029;-75
2023/03/28 01:56:45;;;;;;;1999.90;999.90;;;;;;;0.52;79.71;98025.03;5052939;28;20478;-77
2023/03/28 01:59:25;;;;;;;1999.90;999.90;;;;;;;0.52;80.88;98033.09;5033434;28;20060;-75
2023/03/28 02:02:00;;;;;;;1999.90;999.90;;;;;;;0.56;79.58;98028.91;5051258;28;20029;-75
2023/03/28 02:04:28;;;;;;;1999.90;999.90;;;;;;;0.48;80.18;98018.47;5033023;28;20095;-75
2023/03/28 02:06:55;;;;;;;1999.90;999.90;;;;;;;0.32;80.34;98016.41;5032862;28;20367;-75
2023/03/28 02:09:23;;;;;;;1999.90;999.90;;;;;;;0.16;82.53;98017.09;5033122;28;20072;-75
2023/03/28 02:11:54;;;;;;;1999.90;999.90;;;;;;;0.11;84.59;98017.75;5050984;28;20043;-75
2023/03/28 02:14:24;;;;;;;1999.90;999.90;;;;;;;0.33;84.90;98026.13;5050941;28;20401;-75
2023/03/28 02:16:53;;;;;;;1999.90;999.90;;;;;;;0.35;84.00;98029.41;5032891;28;20102;-75
2023/03/28 02:19:23;;;;;;;1999.90;999.90;;;;;;;0.32;84.03;98030.69;5050702;28;20086;-75
2023/03/28 02:22:08;;;;;;;1999.90;999.90;;;;;;;0.35;83.82;98029.41;5051286;28;20036;-75
2023/03/28 02:24:33;;;;;;;1999.90;999.90;;;;;;;0.38;83.11;98034.31;5050431;28;20393;-75
2023/03/28 02:26:59;;;;;;;1999.90;999.90;;;;;;;0.37;82.88;98032.72;5050361;28;20028;-75
2023/03/28 02:29:27;;;;;;;1999.90;999.90;;;;;;;0.21;84.62;98019.91;5050783;28;20028;-76
2023/03/28 02:31:52;;;;;;;1999.90;999.90;;;;;;;0.11;85.67;98027.69;5050595;28;20029;-75
2023/03/28 02:34:18;;;;;;;1999.90;999.90;;;;;;;0.15;85.03;98035.06;5033128;28;20489;-75
2023/03/28 02:37:21;;;;;;;1999.90;999.90;;;;;;;0.24;84.87;98052.53;5050375;28;20481;-76
2023/03/28 02:39:55;;;;;;;1999.90;999.90;;;;;;;0.17;82.40;98049.09;5039370;28;20040;-75
2023/03/28 02:42:53;;;;;;;1999.90;999.90;;;;;;;0.35;81.03;98037.47;5050550;28;20037;-74
2023/03/28 02:45:35;;;;;;;1999.90;999.90;;;;;;;0.37;83.46;98046.16;5032510;28;20033;-75
2023/03/28 02:48:28;;;;;;;1999.90;999.90;;;;;;;0.46;82.87;98036.72;5049765;28;20063;-75
2023/03/28 02:51:22;;;;;;;1999.90;999.90;;;;;;;0.48;82.27;98045.38;5049805;28;20029;-75
2023/03/28 02:54:16;;;;;;;1999.90;999.90;;;;;;;0.46;82.05;98047.47;5050448;28;20024;-75
2023/03/28 02:56:52;;;;;;;1999.90;999.90;;;;;;;0.21;84.84;98044.09;5049776;28;20021;-76
2023/03/28 02:59:22;;;;;;;1999.90;999.90;;;;;;;0.24;86.00;98054.41;5050245;28;20086;-75
2023/03/28 03:01:48;;;;;;;1999.90;999.90;;;;;;;0.14;87.03;98041.50;5032771;28;20437;-75
2023/03/28 03:04:16;;;;;;;1999.90;999.90;;;;;;;-0.07;88.01;98042.78;5032574;28;20037;-74
2023/03/28 03:06:44;;;;;;;1999.90;999.90;;;;;;;-0.02;88.88;98053.69;5050320;28;20017;-75
2023/03/28 03:09:10;;;;;;;1999.90;999.90;;;;;;;-0.09;90.45;98060.16;5050547;28;20082;-76
2023/03/28 03:11:35;;;;;;;1999.90;999.90;;;;;;;-0.05;92.01;98069.44;5050384;28;20029;-76
2023/03/28 03:14:01;;;;;;;1999.90;999.90;;;;;;;-0.15;91.36;98058.38;5050162;28;20473;-75
2023/03/28 03:16:27;;;;;;;1999.90;999.90;;;;;;;-0.43;92.94;98058.06;5050478;28;20037;-75
2023/03/28 03:18:53;;;;;;;1999.90;999.90;;;;;;;-0.43;93.55;98058.91;5050817;28;20036;-76
2023/03/28 03:21:20;;;;;;;1999.90;999.90;;;;;;;-0.43;93.99;98058.91;5051870;28;20023;-76
2023/03/28 03:23:46;;;;;;;1999.90;999.90;;;;;;;-0.46;94.49;98070.09;5051492;28;20485;-75
2023/03/28 03:26:11;;;;;;;1999.90;999.90;;;;;;;-0.33;96.68;98078.03;5050151;28;20071;-75
2023/03/28 03:28:36;;;;;;;1999.90;999.90;;;;;;;-0.26;96.34;98075.28;5050633;28;20021;-75
2023/03/28 03:31:02;;;;;;;1999.90;999.90;;;;;;;-0.27;95.51;98071.75;5032096;28;20359;-75
2023/03/28 03:33:27;;;;;;;1999.90;999.90;;;;;;;-0.20;93.98;98085.94;5031770;28;20517;-75
2023/03/28 03:35:52;;;;;;;1999.90;999.90;;;;;;;-0.29;93.28;98087.28;5050174;28;20040;-75
2023/03/28 03:38:18;;;;;;;1999.90;999.90;;;;;;;-0.17;95.65;98090.06;5036478;28;20136;-75
2023/03/28 03:40:43;;;;;;;1999.90;999.90;;;;;;;-0.34;93.07;98078.22;5049452;28;20093;-76
2023/03/28 03:43:09;;;;;;;1999.90;999.90;;;;;;;-0.40;95.17;98073.75;5034960;28;20018;-76
2023/03/28 03:45:36;;;;;;;1999.90;999.90;;;;;;;-0.32;94.54;98087.75;5035971;28;20116;-75
2023/03/28 03:48:02;;;;;;;1999.90;999.90;;;;;;;-0.38;96.55;98082.44;5034966;28;20087;-77
2023/03/28 03:50:28;;;;;;;1999.90;999.90;;;;;;;-0.39;97.58;98078.91;5053828;28;20037;-76
2023/03/28 03:52:53;;;;;;;1999.90;999.90;;;;;;;-0.41;97.13;98089.06;5054027;28;20035;-75
2023/03/28 03:55:19;;;;;;;1999.90;999.90;;;;;;;-0.59;96.84;98081.78;5035483;28;20033;-75
2023/03/28 03:57:45;;;;;;;1999.90;999.90;;;;;;;-0.63;97.99;98085.94;5035471;28;20466;-76
2023/03/28 04:00:11;;;;;;;1999.90;999.90;;;;;;;-0.52;96.52;98089.78;5053689;28;20044;-75
2023/03/28 04:02:38;;;;;;;1999.90;999.90;;;;;;;-0.58;97.18;98104.94;5053861;28;20045;-74
2023/03/28 04:05:04;;;;;;;1999.90;999.90;;;;;;;-0.68;98.05;98093.03;5053611;28;20078;-76
2023/03/28 04:07:31;;;;;;;1999.90;999.90;;;;;;;-0.57;96.91;98111.97;5053795;28;20025;-76
2023/03/28 04:09:57;;;;;;;1999.90;999.90;;;;;;;-0.60;96.69;98096.28;5035734;28;20107;-75
2023/03/28 04:12:23;;;;;;;1999.90;999.90;;;;;;;-0.79;96.98;98096.44;5053282;28;20121;-75
2023/03/28 04:14:48;;;;;;;1999.90;999.90;;;;;;;-0.78;99.16;98100.75;5052214;28;20021;-75
2023/03/28 04:17:14;;;;;;;1999.90;999.90;;;;;;;-0.88;100.00;98098.59;5035459;28;20544;-76
2023/03/28 04:19:40;;;;;;;1999.90;999.90;;;;;;;-0.85;100.00;98108.06;5053586;28;20025;-74
2023/03/28 04:22:07;;;;;;;1999.90;999.90;;;;;;;-0.92;100.00;98107.28;5035942;28;20029;-75
2023/03/28 04:24:35;;;;;;;1999.90;999.90;;;;;;;-0.82;100.00;98126.41;5053648;28;20021;-74
2023/03/28 04:27:02;;;;;;;1999.90;999.90;;;;;;;-0.68;100.00;98136.81;5053206;28;20021;-75
2023/03/28 04:29:30;;;;;;;1999.90;999.90;;;;;;;-0.61;100.00;98134.09;5053211;28;20025;-74
2023/03/28 04:31:59;;;;;;;1999.90;999.90;;;;;;;-0.66;100.00;98145.47;5035823;28;20040;-73
2023/03/28 04:34:32;;;;;;;1999.90;999.90;;;;;;;-0.78;100.00;98138.34;5053822;28;20036;-74
2023/03/28 04:37:00;;;;;;;1999.90;999.90;;;;;;;-0.82;99.68;98145.22;5053774;28;20029;-74
2023/03/28 04:39:30;;;;;;;1999.90;999.90;;;;;;;-0.82;98.69;98164.00;5053052;28;20060;-74
2023/03/28 04:42:00;;;;;;;1999.90;999.90;;;;;;;-0.85;99.06;98157.22;5053048;28;20128;-74
2023/03/28 04:44:26;;;;;;;1999.90;999.90;;;;;;;-0.80;98.27;98160.06;5052809;28;20166;-76
2023/03/28 04:46:52;;;;;;;1999.90;999.90;;;;;;;-0.86;97.79;98170.84;5052801;28;20132;-75
2023/03/28 04:49:17;;;;;;;1999.90;999.90;;;;;;;-0.87;97.49;98158.44;5052671;28;20104;-75
2023/03/28 04:51:43;;;;;;;1999.90;999.90;;;;;;;-0.85;95.92;98159.06;5047133;28;20071;-77
2023/03/28 04:54:08;;;;;;;1999.90;999.90;;;;;;;-0.57;96.67;98164.84;5020593;28;20490;-75
2023/03/28 04:56:34;;;;;;;1999.90;999.90;;;;;;;-0.39;95.30;98172.94;5032862;28;20025;-76
2023/03/28 04:58:59;;;;;;;1999.90;999.90;;;;;;;-0.47;96.24;98165.16;5043532;28;20060;-78
2023/03/28 05:01:26;;;;;;;1999.90;999.90;;;;;;;-0.40;96.10;98178.53;5053280;28;20036;-73
2023/03/28 05:03:52;;;;;;;1999.90;999.90;;;;;;;-0.29;95.79;98177.81;5054669;28;20563;-75
2023/03/28 05:06:17;;;;;;;1999.90;999.90;;;;;;;-0.10;97.90;98191.09;5052288;28;20033;-76
2023/03/28 05:08:43;;;;;;;1999.90;999.90;;;;;;;-0.08;95.50;98198.91;5051781;28;20036;-74
2023/03/28 05:11:09;;;;;;;1999.90;999.90;;;;;;;-0.09;95.38;98198.06;5034335;28;20470;-75
2023/03/28 05:13:35;;;;;;;1999.90;999.90;;;;;;;-0.05;95.65;98204.66;5052495;28;20060;-77
2023/03/28 05:16:00;;;;;;;1999.90;999.90;;;;;;;-0.20;96.59;98193.44;5034765;28;20067;-82
2023/03/28 05:18:26;;;;;;;1999.90;999.90;;;;;;;-0.31;96.51;98193.31;5038175;28;20037;-75
2023/03/28 05:20:51;;;;;;;1999.90;999.90;;;;;;;-0.08;95.09;98212.34;5036387;28;20037;-75
2023/03/28 05:23:17;;;;;;;1999.90;999.90;;;;;;;0.22;93.89;98220.53;5034167;28;20041;-74
2023/03/28 05:25:54;;;;;;;1999.90;999.90;;;;;;;0.59;90.67;98222.19;5053007;28;20037;-77
2023/03/28 05:28:20;;;;;;;1999.90;999.90;;;;;;;0.84;87.61;98238.25;5050116;28;20032;-76
2023/03/28 05:30:46;;;;;;;1999.90;999.90;;;;;;;0.61;87.93;98230.84;5051209;28;20087;-76
2023/03/28 05:33:11;;;;;;;1999.90;999.90;;;;;;;0.58;89.25;98228.63;5032741;28;20021;-75
2023/03/28 05:35:38;;;;;;;1999.90;999.90;;;;;;;0.48;89.44;98220.25;5050255;28;20032;-77
2023/03/28 05:38:03;;;;;;;1999.90;999.90;;;;;;;0.59;90.76;98246.41;5050289;28;20126;-77
2023/03/28 05:40:29;;;;;;;1999.90;999.90;;;;;;;0.80;91.63;98255.88;5050424;28;20105;-75
2023/03/28 05:42:54;;;;;;;1999.90;999.90;;;;;;;0.72;91.72;98250.81;5050465;28;20458;-75
2023/03/28 05:45:20;;;;;;;1999.90;999.90;;;;;;;0.75;92.78;98255.75;5049972;28;20052;-76
2023/03/28 05:47:48;;;;;;;1999.90;999.90;;;;;;;0.84;90.76;98266.00;5052142;28;20056;-75
2023/03/28 05:50:14;;;;;;;1999.90;999.90;;;;;;;0.92;90.46;98262.16;5057815;28;20029;-77
2023/03/28 05:52:39;;;;;;;1999.90;999.90;;;;;;;0.91;90.08;98263.19;5051880;28;20023;-74
2023/03/28 05:55:06;;;;;;;1999.90;999.90;;;;;;;0.90;90.34;98254.31;5050864;28;20113;-74
2023/03/28 05:57:31;;;;;;;1999.90;999.90;;;;;;;1.09;88.66;98257.81;5046570;28;20107;-75
2023/03/28 05:59:57;;;;;;;1999.90;999.90;;;;;;;1.25;85.08;98259.88;5050931;28;20024;-76
2023/03/28 06:02:23;;;;;;;1999.90;999.90;;;;;;;1.49;84.51;98258.06;5050795;28;20142;-74
2023/03/28 06:04:52;;;;;;;1999.90;999.90;;;;;;;1.48;83.00;98256.41;5050940;28;20665;-76
2023/03/28 06:07:18;;;;;;;1999.90;999.90;;;;;;;1.81;83.18;98278.31;5051373;28;20021;-76
2023/03/28 06:09:43;;;;;;;1999.90;999.90;;;;;;;1.88;82.78;98283.59;5051403;28;20021;-75
2023/03/28 06:12:09;;;;;;;1999.90;999.90;;;;;;;2.13;81.97;98282.31;5033633;28;20036;-75
2023/03/28 06:14:35;;;;;;;1999.90;999.90;;;;;;;2.29;80.08;98297.00;5052604;28;20055;-76
2023/03/28 06:17:00;;;;;;;1999.90;999.90;;;;;;;2.52;78.58;98282.69;5050874;28;20029;-75
2023/03/28 06:19:25;;;;;;;1999.90;999.90;;;;;;;2.60;76.65;98293.16;5050444;28;20566;-74
2023/03/28 06:21:51;;;;;;;1999.90;999.90;;;;;;;2.60;75.82;98288.53;5051158;28;20016;-76
2023/03/28 06:24:16;;;;;;;1999.90;999.90;;;;;;;2.58;76.00;98282.56;5050487;28;20518;-76
2023/03/28 06:26:42;;;;;;;1999.90;999.90;;;;;;;2.78;75.37;98284.91;5050404;28;20029;-76
2023/03/28 06:29:07;;;;;;;1999.90;999.90;;;;;;;3.01;73.50;98290.25;5050608;28;20033;-76
2023/03/28 06:31:33;;;;;;;1999.90;999.90;;;;;;;3.36;69.88;98308.22;5051037;28;20028;-76
2023/03/28 06:33:58;;;;;;;1999.90;999.90;;;;;;;4.50;65.58;98296.19;5050559;28;20108;-74
2023/03/28 06:36:24;;;;;;;1999.90;999.90;;;;;;;4.74;62.55;98311.16;5050417;28;20474;-78
2023/03/28 06:38:51;;;;;;;1999.90;999.90;;;;;;;4.44;63.38;98316.13;5050600;28;20417;-74
2023/03/28 06:41:16;;;;;;;1999.90;999.90;;;;;;;4.52;63.43;98313.00;5050158;28;20032;-75
2023/03/28 06:43:42;;;;;;;1999.90;999.90;;;;;;;4.97;65.08;98312.84;5050581;28;20403;-75
2023/03/28 06:46:08;;;;;;;1999.90;999.90;;;;;;;5.27;61.89;98319.47;5050380;28;20044;-75
2023/03/28 06:48:34;;;;;;;1999.90;999.90;;;;;;;4.89;61.51;98305.16;5050329;28;20032;-76
2023/03/28 06:51:00;;;;;;;1999.90;999.90;;;;;;;4.84;62.96;98309.44;5050293;28;20024;-74
2023/03/28 06:53:26;;;;;;;1999.90;999.90;;;;;;;5.03;63.74;98315.38;5050562;28;20124;-76
2023/03/28 06:55:52;;;;;;;1999.90;999.90;;;;;;;5.21;63.06;98300.69;5050709;28;20075;-74
2023/03/28 06:58:20;;;;;;;1999.90;999.90;;;;;;;5.61;61.16;98313.88;5050991;28;20060;-75
2023/03/28 07:00:45;;;;;;;1999.90;999.90;;;;;;;5.99;59.49;98324.66;5051049;28;20462;-76
2023/03/28 07:03:11;;;;;;;1999.90;999.90;;;;;;;6.11;56.94;98333.44;5050725;28;20021;-76
2023/03/28 07:05:38;;;;;;;1999.90;999.90;;;;;;;6.27;55.22;98337.13;5051055;28;20036;-76
2023/03/28 07:08:05;;;;;;;1999.90;999.90;;;;;;;6.70;53.56;98330.69;5050894;28;20354;-77
2023/03/28 07:10:31;;;;;;;1999.90;999.90;;;;;;;7.28;49.90;98333.22;5052145;28;20021;-82
2023/03/28 07:12:56;;;;;;;1999.90;999.90;;;;;;;7.74;45.97;98341.56;5055550;28;20333;-75
2023/03/28 07:15:21;;;;;;;1999.90;999.90;;;;;;;8.67;44.13;98325.94;5055404;28;20025;-76
2023/03/28 07:17:47;;;;;;;1999.90;999.90;;;;;;;8.86;43.35;98329.72;5055274;28;20071;-75
2023/03/28 07:20:12;;;;;;;1999.90;999.90;;;;;;;9.27;41.53;98350.34;5055760;28;20501;-74
2023/03/28 07:22:38;;;;;;;1999.90;999.90;;;;;;;10.34;38.44;98348.00;5055414;28;20051;-75
2023/03/28 07:25:04;;;;;;;1999.90;999.90;;;;;;;10.73;36.72;98349.59;5055069;28;20039;-75
2023/03/28 07:27:29;;;;;;;1999.90;999.90;;;;;;;10.58;35.04;98344.25;5055261;28;20029;-75
2023/03/28 07:29:55;;;;;;;1999.90;999.90;;;;;;;10.47;35.50;98348.16;5055370;28;20021;-75
2023/03/28 07:32:21;;;;;;;1999.90;999.90;;;;;;;11.05;34.86;98368.19;5037665;28;20021;-74
2023/03/28 07:34:46;;;;;;;1999.90;999.90;;;;;;;11.38;33.58;98368.41;5057348;28;20029;-75
2023/03/28 07:37:12;;;;;;;1999.90;999.90;;;;;;;11.64;32.87;98370.59;5057201;28;20020;-75
2023/03/28 07:39:38;;;;;;;1999.90;999.90;;;;;;;11.52;32.00;98370.19;5055113;28;20055;-74
2023/03/28 07:42:09;;;;;;;1999.90;999.90;;;;;;;11.87;31.47;98385.44;5037777;28;20045;-74
2023/03/28 07:44:34;;;;;;;1999.90;999.90;;;;;;;12.01;31.00;98385.50;5054867;28;20055;-77
2023/03/28 07:47:00;;;;;;;1999.90;999.90;;;;;;;12.07;30.42;98390.63;5055208;28;20462;-75
2023/03/28 07:49:26;;;;;;;1999.90;999.90;;;;;;;12.63;29.26;98390.66;5054986;28;20025;-75
2023/03/28 07:51:51;;;;;;;1999.90;999.90;;;;;;;11.90;30.14;98387.56;5055593;28;20029;-74
2023/03/28 07:54:17;;;;;;;1999.90;999.90;;;;;;;11.58;30.75;98401.91;5057527;28;20466;-75
2023/03/28 07:56:46;;;;;;;1999.90;999.90;;;;;;;11.82;29.33;98394.50;5061165;28;20397;-80
2023/03/28 07:59:12;;;;;;;1999.90;999.90;;;;;;;12.29;28.04;98412.00;5054728;28;20051;-76
2023/03/28 08:01:39;;;;;;;1999.90;999.90;;;;;;;13.32;27.86;98413.72;5054349;28;20052;-74
2023/03/28 08:04:05;;;;;;;1999.90;999.90;;;;;;;14.06;26.09;98411.75;5053765;28;20021;-74
2023/03/28 08:06:33;;;;;;;1999.90;999.90;;;;;;;16.21;23.18;98422.44;5054456;28;20025;-76
2023/03/28 08:09:01;;;;;;;1999.90;999.90;;;;;;;17.23;22.32;98421.72;5050444;28;20025;-76
2023/03/28 08:11:27;;;;;;;1999.90;999.90;;;;;;;17.43;21.19;98425.78;5044432;28;20079;-75
2023/03/28 08:13:52;;;;;;;1999.90;999.90;;;;;;;17.23;21.40;98427.25;5033469;28;20021;-77
2023/03/28 08:16:18;;;;;;;1999.90;999.90;;;;;;;17.74;20.39;98436.63;5047646;28;20025;-75
2023/03/28 08:18:43;;;;;;;1999.90;999.90;;;;;;;17.81;20.24;98440.53;5035441;28;20441;-76
2023/03/28 08:21:08;;;;;;;1999.90;999.90;;;;;;;19.54;19.32;98449.41;5053047;28;20474;-75
2023/03/28 08:23:34;;;;;;;1999.90;999.90;;;;;;;21.22;17.95;98431.16;5034637;28;20060;-79
2023/03/28 08:26:03;;;;;;;1999.90;999.90;;;;;;;20.77;17.66;98431.34;5053478;28;20136;-75
2023/03/28 08:28:30;;;;;;;1999.90;999.90;;;;;;;21.24;16.96;98430.78;5053274;28;20040;-77
2023/03/28 08:30:56;;;;;;;1999.90;999.90;;;;;;;21.94;16.36;98429.19;5053399;28;20029;-75
2023/03/28 08:33:21;;;;;;;1999.90;999.90;;;;;;;20.76;17.04;98428.94;5034978;28;20108;-75
2023/03/28 08:35:50;;;;;;;1999.90;999.90;;;;;;;21.39;16.41;98430.03;5052580;28;20067;-74
2023/03/28 08:38:17;;;;;;;1999.90;999.90;;;;;;;22.06;16.32;98428.28;5053332;28;20119;-74
2023/03/28 08:40:53;;;;;;;1999.90;999.90;;;;;;;21.61;15.96;98434.22;5053556;28;20111;-76
2023/03/28 08:43:32;;;;;;;1999.90;999.90;;;;;;;22.04;16.03;98431.44;5053006;28;20427;-74
2023/03/28 08:46:00;;;;;;;1999.90;999.90;;;;;;;20.18;16.57;98439.34;5034908;28;20131;-77
2023/03/28 08:48:33;;;;;;;1999.90;999.90;;;;;;;20.46;16.12;98420.03;5052642;28;20485;-74
2023/03/28 08:51:13;;;;;;;1999.90;999.90;;;;;;;20.29;17.13;98420.28;5052841;28;20029;-76
2023/03/28 08:53:44;;;;;;;1999.90;999.90;;;;;;;20.59;16.71;98426.38;5034994;28;20021;-74
2023/03/28 08:56:14;;;;;;;1999.90;999.90;;;;;;;20.95;16.44;98423.56;5052810;28;20473;-78
2023/03/28 08:58:49;;;;;;;1999.90;999.90;;;;;;;21.71;16.01;98419.75;5052380;28;20064;-77
2023/03/28 09:01:15;;;;;;;1999.90;999.90;;;;;;;20.54;16.70;98432.19;5052721;28;20075;-77
2023/03/28 09:03:41;;;;;;;1999.90;999.90;;;;;;;21.27;15.97;98410.59;5048995;28;20104;-76
2023/03/28 09:06:23;;;;;;;1999.90;999.90;;;;;;;20.62;16.56;98425.69;5032749;28;20135;-77
2023/03/28 09:09:23;;;;;;;1999.90;999.90;;;;;;;22.10;14.79;98443.94;5033001;28;20017;-76
2023/03/28 09:12:18;;;;;;;1999.90;999.90;;;;;;;21.90;15.55;98428.28;5032196;28;20473;-74
2023/03/28 09:14:57;;;;;;;1999.90;999.90;;;;;;;22.98;14.22;98453.66;5032717;28;20029;-78
2023/03/28 09:17:53;;;;;;;1999.90;999.90;;;;;;;22.71;14.95;98438.69;5032394;28;20033;-77
2023/03/28 09:20:53;;;;;;;1999.90;999.90;;;;;;;22.43;14.92;98435.19;5032817;28;20390;-75
2023/03/28 09:23:58;;;;;;;1999.90;999.90;;;;;;;22.96;14.85;98435.69;5032265;28;20065;-76
2023/03/28 09:26:33;;;;;;;1999.90;999.90;;;;;;;21.33;15.15;98428.69;5032627;28;20029;-75
2023/03/28 09:29:10;;;;;;;1999.90;999.90;;;;;;;21.09;15.56;98426.78;5032885;28;20034;-74
2023/03/28 09:31:47;;;;;;;1999.90;999.90;;;;;;;20.92;15.24;98423.44;5032755;28;20068;-74
2023/03/28 09:34:26;;;;;;;1999.90;999.90;;;;;;;21.78;14.44;98439.47;5031349;28;20021;-78
2023/03/28 09:36:55;;;;;;;1999.90;999.90;;;;;;;20.19;15.24;98421.53;5032651;28;20398;-75
2023/03/28 09:39:39;;;;;;;1999.90;999.90;;;;;;;;;;5032341;28;20033;-76
2023/03/28 09:42:29;;;;;;;1999.90;999.90;;;;;;;21.07;14.81;98434.66;5014386;28;20040;-76
2023/03/28 09:45:29;;;;;;;1999.90;999.90;;;;;;;21.12;15.46;98437.19;5031728;28;20034;-76
2023/03/28 09:47:55;;;;;;;1999.90;999.90;;;;;;;20.29;16.16;98432.22;4989711;28;20041;-75
2023/03/28 09:50:22;;;;;;;1999.90;999.90;;;;;;;21.61;15.59;98442.59;5031655;28;20037;-77
2023/03/28 09:52:50;;;;;;;1999.90;999.90;;;;;;;21.99;14.82;98442.84;5031599;28;20061;-75
2023/03/28 09:55:21;;;;;;;1999.90;999.90;;;;;;;21.19;15.09;98437.41;5033296;28;20077;-74
2023/03/28 09:58:05;;;;;;;1999.90;999.90;;;;;;;21.13;14.92;98444.41;5032255;28;20079;-76
2023/03/28 10:00:50;;;;;;;1999.90;999.90;;;;;;;21.25;15.14;98438.78;5033007;28;20036;-76
2023/03/28 10:03:28;;;;;;;1999.90;999.90;;;;;;;21.95;15.24;98455.06;5046376;28;20037;-75
2023/03/28 10:05:55;;;;;;;1999.90;999.90;;;;;;;22.30;14.82;98462.38;5051306;28;20120;-76
2023/03/28 10:08:43;;;;;;;1999.90;999.90;;;;;;;22.00;14.18;98455.63;5051963;28;20033;-75
2023/03/28 10:11:14;;;;;;;1999.90;999.90;;;;;;;22.14;13.87;98457.97;5050739;28;20089;-75
2023/03/28 10:13:50;;;;;;;1999.90;999.90;;;;;;;21.85;14.22;98453.59;5050586;28;20063;-75
2023/03/28 10:16:25;;;;;;;1999.90;999.90;;;;;;;21.55;14.73;98460.72;5051280;28;20029;-74
2023/03/28 10:18:51;;;;;;;1999.90;999.90;;;;;;;22.12;14.42;98452.75;5050874;28;20076;-75
2023/03/28 10:21:22;;;;;;;1999.90;999.90;;;;;;;21.05;15.14;98450.88;5051277;28;20519;-76
2023/03/28 10:24:04;;;;;;;1999.90;999.90;;;;;;;20.63;15.33;98444.00;5050801;28;20406;-74
2023/03/28 10:26:30;;;;;;;1999.90;999.90;;;;;;;20.39;15.11;98444.84;5033164;28;20048;-74
2023/03/28 10:28:59;;;;;;;1999.90;999.90;;;;;;;20.22;15.54;98445.03;5051670;28;20096;-79
2023/03/28 10:31:30;;;;;;;1999.90;999.90;;;;;;;20.23;15.53;98444.69;5046002;28;20025;-74
2023/03/28 10:34:01;;;;;;;1999.90;999.90;;;;;;;21.31;14.82;98448.50;5048476;28;20025;-75
2023/03/28 10:36:39;;;;;;;1999.90;999.90;;;;;;;21.27;14.64;98432.84;5049745;28;20086;-75
2023/03/28 10:39:34;;;;;;;1999.90;999.90;;;;;;;21.40;15.31;98453.91;5032226;28;20067;-77
2023/03/28 10:42:01;;;;;;;1999.90;999.90;;;;;;;22.15;14.68;98449.25;5050391;28;20079;-75
2023/03/28 10:44:39;;;;;;;1999.90;999.90;;;;;;;22.45;14.26;98457.16;5047130;28;20021;-78
2023/03/28 10:47:09;;;;;;;1999.90;999.90;;;;;;;22.23;13.53;98448.28;5048777;28;20048;-75
2023/03/28 10:49:44;;;;;;;1999.90;999.90;;;;;;;21.53;13.72;98446.31;5047920;28;20033;-77
2023/03/28 10:52:16;;;;;;;;;;;;;;;20.99;14.33;98448.69;5050548;28;20029;-77
2023/03/28 10:55:00;;;;;;;1999.90;999.90;;;;;;;20.69;14.28;98453.72;5049568;28;20335;-76
2023/03/28 10:57:44;;;;;;;1999.90;999.90;;;;;;;20.08;14.59;98437.00;5031627;28;20024;-79
2023/03/28 11:00:18;;;;;;;1999.90;999.90;;;;;;;20.81;15.28;98450.91;5049750;28;20067;-79
2023/03/28 11:03:02;;;;;;;1999.90;999.90;;;;;;;19.45;15.26;98445.91;5049663;28;20056;-77
2023/03/28 11:05:27;;;;;;;1999.90;999.90;;;;;;;18.99;15.28;98438.59;5049877;28;20028;-78
2023/03/28 11:08:01;;;;;;;1999.90;999.90;;;;;;;17.67;16.36;98425.28;5049694;28;20398;-78
2023/03/28 11:10:41;;;;;;;1999.90;999.90;;;;;;;17.57;17.12;98434.75;5049763;28;20024;-78
2023/03/28 11:13:30;;;;;;;1999.90;999.90;;;;;;;16.65;17.70;98426.94;5049965;28;20037;-77